createdAt,value
2018-01-28T00:01:20.812Z,5.60
2018-01-28T00:03:49.272Z,5.60
2018-01-28T00:06:17.552Z,5.60
2018-01-28T00:08:46.419Z,5.60
2018-01-28T00:11:15.485Z,5.60
2018-01-28T00:13:43.859Z,5.60
2018-01-28T00:16:12.141Z,5.60
2018-01-28T00:18:40.437Z,5.60
2018-01-28T00:21:09.460Z,5.70
2018-01-28T00:23:37.808Z,5.70
2018-01-28T00:26:06.885Z,5.70
2018-01-28T00:28:35.272Z,5.70
2018-01-28T00:31:03.539Z,5.70
2018-01-28T00:33:31.795Z,5.70
2018-01-28T00:36:00.055Z,5.70
2018-01-28T00:38:29.312Z,5.70
2018-01-28T00:41:00.729Z,5.70
2018-01-28T00:43:29.842Z,5.70
2018-01-28T00:45:58.973Z,5.70
2018-01-28T00:48:27.303Z,5.70
2018-01-28T00:50:56.368Z,5.80
2018-01-28T00:53:25.442Z,5.70
2018-01-28T00:55:53.999Z,5.70
2018-01-28T00:58:23.088Z,5.60
2018-01-28T01:00:51.341Z,5.60
2018-01-28T01:03:20.385Z,5.50
2018-01-28T01:05:48.664Z,5.50
2018-01-28T01:08:16.900Z,5.50
2018-01-28T01:10:46.390Z,5.40
2018-01-28T01:13:18.861Z,5.40
2018-01-28T01:15:47.149Z,5.30
2018-01-28T01:18:15.505Z,5.20
2018-01-28T01:20:43.887Z,5.20
2018-01-28T01:23:12.233Z,5.10
2018-01-28T01:25:40.467Z,5.10
2018-01-28T01:28:09.541Z,4.90
2018-01-28T01:30:37.860Z,4.80
2018-01-28T01:33:06.136Z,4.90
2018-01-28T01:35:34.412Z,4.90
2018-01-28T01:38:02.709Z,4.90
2018-01-28T01:40:30.954Z,4.90
2018-01-28T01:42:59.285Z,4.90
2018-01-28T01:45:27.552Z,4.90
2018-01-28T01:47:55.816Z,4.90
2018-01-28T01:50:24.056Z,4.90
2018-01-28T01:52:52.430Z,4.90
2018-01-28T01:55:21.551Z,5.00
2018-01-28T01:57:50.092Z,4.90
2018-01-28T02:00:19.173Z,5.00
2018-01-28T02:02:47.511Z,5.00
2018-01-28T02:05:15.753Z,5.10
2018-01-28T02:07:44.816Z,5.20
2018-01-28T02:10:13.088Z,5.10
2018-01-28T02:12:41.406Z,5.20
2018-01-28T02:15:10.513Z,5.20
2018-01-28T02:17:39.585Z,5.20
2018-01-28T02:20:08.049Z,5.10
2018-01-28T02:22:36.357Z,5.20
2018-01-28T02:25:05.401Z,5.20
2018-01-28T02:27:33.697Z,5.20
2018-01-28T02:30:02.296Z,5.20
2018-01-28T02:32:30.566Z,5.20
2018-01-28T02:34:59.568Z,5.20
2018-01-28T02:37:28.860Z,5.20
2018-01-28T02:39:57.160Z,5.20
2018-01-28T02:42:25.416Z,5.20
2018-01-28T02:44:54.504Z,5.30
2018-01-28T02:47:22.793Z,5.30
2018-01-28T02:49:51.921Z,5.40
2018-01-28T02:52:20.385Z,5.30
2018-01-28T02:54:49.477Z,5.40
2018-01-28T02:57:18.502Z,5.40
2018-01-28T02:59:47.251Z,5.40
2018-01-28T03:02:15.569Z,5.40
2018-01-28T03:04:43.830Z,5.50
2018-01-28T03:07:12.150Z,5.50
2018-01-28T03:09:40.393Z,5.50
2018-01-28T03:12:08.693Z,5.50
2018-01-28T03:14:37.089Z,5.60
2018-01-28T03:17:05.369Z,5.60
2018-01-28T03:19:33.692Z,5.60
2018-01-28T03:22:02.811Z,5.60
2018-01-28T03:24:31.048Z,5.60
2018-01-28T03:27:00.085Z,5.70
2018-01-28T03:29:28.436Z,5.60
2018-01-28T03:31:57.437Z,5.70
2018-01-28T03:34:25.741Z,5.70
2018-01-28T03:36:54.009Z,5.70
2018-01-28T03:39:22.313Z,5.70
2018-01-28T03:41:50.604Z,5.70
2018-01-28T03:44:19.726Z,5.80
2018-01-28T03:46:48.270Z,5.80
2018-01-28T03:49:16.513Z,5.80
2018-01-28T03:51:44.896Z,5.80
2018-01-28T03:54:13.142Z,5.80
2018-01-28T03:56:41.389Z,5.80
2018-01-28T03:59:09.660Z,5.80
2018-01-28T04:01:37.925Z,5.90
2018-01-28T04:04:06.216Z,5.80
2018-01-28T04:06:34.590Z,5.80
2018-01-28T04:09:02.860Z,5.90
2018-01-28T04:11:31.096Z,5.80
2018-01-28T04:13:59.372Z,5.90
2018-01-28T04:16:27.637Z,5.80
2018-01-28T04:18:55.916Z,5.80
2018-01-28T04:21:24.185Z,5.80
2018-01-28T04:23:52.512Z,5.90
2018-01-28T04:26:20.860Z,5.90
2018-01-28T04:28:49.228Z,5.90
2018-01-28T04:31:17.554Z,5.90
2018-01-28T04:33:45.801Z,5.90
2018-01-28T04:36:14.097Z,5.90
2018-01-28T04:38:42.353Z,5.90
2018-01-28T04:41:10.619Z,6.00
2018-01-28T04:43:38.888Z,6.00
2018-01-28T04:46:07.138Z,6.10
2018-01-28T04:48:36.196Z,6.00
2018-01-28T04:51:04.482Z,6.00
2018-01-28T04:53:32.817Z,6.10
2018-01-28T04:56:01.092Z,6.10
2018-01-28T04:58:29.389Z,6.10
2018-01-28T05:00:57.689Z,6.10
2018-01-28T05:03:25.973Z,6.20
2018-01-28T05:05:54.244Z,6.20
2018-01-28T05:08:22.489Z,6.20
2018-01-28T05:10:50.860Z,6.20
2018-01-28T05:13:19.217Z,6.10
2018-01-28T05:15:48.236Z,6.10
2018-01-28T05:18:16.529Z,6.10
2018-01-28T05:20:44.796Z,6.10
2018-01-28T05:23:13.103Z,6.10
2018-01-28T05:25:41.458Z,6.10
2018-01-28T05:28:10.544Z,6.10
2018-01-28T05:30:38.800Z,6.10
2018-01-28T05:33:07.032Z,6.10
2018-01-28T05:35:35.436Z,6.10
2018-01-28T05:38:04.448Z,6.20
2018-01-28T05:40:32.713Z,6.10
2018-01-28T05:43:00.985Z,6.20
2018-01-28T05:45:29.261Z,6.20
2018-01-28T05:47:57.513Z,6.20
2018-01-28T05:50:25.842Z,6.20
2018-01-28T05:52:54.352Z,6.20
2018-01-28T05:55:22.597Z,6.10
2018-01-28T05:57:50.920Z,6.10
2018-01-28T06:00:19.190Z,6.10
2018-01-28T06:02:47.512Z,6.10
2018-01-28T06:05:15.800Z,6.00
2018-01-28T06:07:44.118Z,6.00
2018-01-28T06:10:12.391Z,6.00
2018-01-28T06:12:40.720Z,5.90
2018-01-28T06:15:08.996Z,5.90
2018-01-28T06:17:37.256Z,5.90
2018-01-28T06:20:05.560Z,5.90
2018-01-28T06:22:33.983Z,5.90
2018-01-28T06:25:02.245Z,6.00
2018-01-28T06:27:31.325Z,6.00
2018-01-28T06:30:00.352Z,5.90
2018-01-28T06:32:28.642Z,5.90
2018-01-28T06:34:57.023Z,5.90
2018-01-28T06:37:25.398Z,5.90
2018-01-28T06:39:53.784Z,6.00
2018-01-28T06:42:22.071Z,6.00
2018-01-28T06:44:50.301Z,6.00
2018-01-28T06:47:18.553Z,6.00
2018-01-28T06:49:46.815Z,6.00
2018-01-28T06:52:16.327Z,6.10
2018-01-28T06:54:44.620Z,6.10
2018-01-28T06:57:12.856Z,6.10
2018-01-28T06:59:41.144Z,6.10
2018-01-28T07:02:09.633Z,6.10
2018-01-28T07:04:37.928Z,6.10
2018-01-28T07:07:06.188Z,6.10
2018-01-28T07:09:34.481Z,6.10
2018-01-28T07:12:02.758Z,6.10
2018-01-28T07:14:31.618Z,6.20
2018-01-28T07:17:00.047Z,6.20
2018-01-28T07:19:29.096Z,6.20
2018-01-28T07:21:57.377Z,6.20
2018-01-28T07:24:25.676Z,6.20
2018-01-28T07:26:54.779Z,6.30
2018-01-28T07:29:23.808Z,6.20
2018-01-28T07:31:52.057Z,6.20
2018-01-28T07:34:21.100Z,6.30
2018-01-28T07:36:49.377Z,6.30
2018-01-28T07:39:17.636Z,6.30
2018-01-28T07:41:45.906Z,6.30
2018-01-28T07:44:14.954Z,6.30
2018-01-28T07:46:43.917Z,6.30
2018-01-28T07:49:12.220Z,6.30
2018-01-28T07:51:40.508Z,6.30
2018-01-28T07:54:08.757Z,6.30
2018-01-28T07:56:37.089Z,6.30
2018-01-28T07:59:05.327Z,6.30
2018-01-28T08:01:33.568Z,6.30
2018-01-28T08:04:01.876Z,6.30
2018-01-28T08:06:30.137Z,6.30
2018-01-28T08:08:58.545Z,6.20
2018-01-28T08:11:28.225Z,6.20
2018-01-28T08:14:07.576Z,6.20
2018-01-28T08:16:35.854Z,6.20
2018-01-28T08:19:04.101Z,6.20
2018-01-28T08:21:32.380Z,6.20
2018-01-28T08:24:00.764Z,6.20
2018-01-28T08:26:29.008Z,6.20
2018-01-28T08:29:01.005Z,6.10
2018-01-28T08:31:29.280Z,6.10
2018-01-28T08:33:58.148Z,6.10
2018-01-28T08:36:26.464Z,6.10
2018-01-28T08:38:54.708Z,6.10
2018-01-28T08:41:22.985Z,6.10
2018-01-28T08:43:51.357Z,6.10
2018-01-28T08:46:19.652Z,6.10
2018-01-28T08:48:47.972Z,6.10
2018-01-28T08:51:17.088Z,6.10
2018-01-28T08:53:45.324Z,6.10
2018-01-28T08:56:13.691Z,6.10
2018-01-28T08:58:41.913Z,6.20
2018-01-28T09:01:10.920Z,6.20
2018-01-28T09:03:39.159Z,6.20
2018-01-28T09:06:07.457Z,6.20
2018-01-28T09:08:35.690Z,6.20
2018-01-28T09:11:03.973Z,6.20
2018-01-28T09:13:32.530Z,6.20
2018-01-28T09:16:01.017Z,6.20
2018-01-28T09:18:29.388Z,6.10
2018-01-28T09:20:57.740Z,6.00
2018-01-28T09:23:26.748Z,6.00
2018-01-28T09:25:55.021Z,6.00
2018-01-28T09:28:24.072Z,6.00
2018-01-28T09:30:52.309Z,6.00
2018-01-28T09:33:20.601Z,5.90
2018-01-28T09:35:48.974Z,6.00
2018-01-28T09:38:17.996Z,6.10
2018-01-28T09:40:46.467Z,6.10
2018-01-28T09:43:14.746Z,6.10
2018-01-28T09:45:44.509Z,6.10
2018-01-28T09:48:12.908Z,6.00
2018-01-28T09:50:42.022Z,6.10
2018-01-28T09:53:11.029Z,6.10
2018-01-28T09:55:39.283Z,6.10
2018-01-28T09:58:08.404Z,6.00
2018-01-28T10:00:36.684Z,6.00
2018-01-28T10:03:04.952Z,6.10
2018-01-28T10:05:33.236Z,6.10
2018-01-28T10:08:01.651Z,6.10
2018-01-28T10:10:29.889Z,6.10
2018-01-28T10:12:58.169Z,6.10
2018-01-28T10:15:27.589Z,6.20
2018-01-28T10:17:55.830Z,6.20
2018-01-28T10:20:24.137Z,6.20
2018-01-28T10:22:52.628Z,6.30
2018-01-28T10:25:21.067Z,6.30
2018-01-28T10:27:49.330Z,6.30
2018-01-28T10:30:18.493Z,6.30
2018-01-28T10:32:46.731Z,6.20
2018-01-28T10:35:14.998Z,6.20
2018-01-28T10:37:43.277Z,6.30
2018-01-28T10:40:11.528Z,6.30
2018-01-28T10:42:40.593Z,6.30
2018-01-28T10:45:08.843Z,6.30
2018-01-28T10:47:37.088Z,6.30
2018-01-28T10:50:05.440Z,6.40
2018-01-28T10:52:34.459Z,6.40
2018-01-28T10:55:02.823Z,6.40
2018-01-28T10:57:31.076Z,6.40
2018-01-28T11:00:00.548Z,6.30
2018-01-28T11:02:29.413Z,6.30
2018-01-28T11:04:57.699Z,6.30
2018-01-28T11:07:26.116Z,6.30
2018-01-28T11:09:54.394Z,6.40
2018-01-28T11:12:22.688Z,6.40
2018-01-28T11:14:50.977Z,6.40
2018-01-28T11:17:20.012Z,6.40
2018-01-28T11:19:48.321Z,6.30
2018-01-28T11:22:16.545Z,6.40
2018-01-28T11:24:44.800Z,6.40
2018-01-28T11:27:13.895Z,6.40
2018-01-28T11:29:42.900Z,6.40
2018-01-28T11:32:11.148Z,6.40
2018-01-28T11:34:39.421Z,6.40
2018-01-28T11:37:07.662Z,6.40
2018-01-28T11:39:35.934Z,6.40
2018-01-28T11:42:04.298Z,6.50
2018-01-28T11:44:32.528Z,6.50
2018-01-28T11:47:00.828Z,6.50
2018-01-28T11:49:29.892Z,6.70
2018-01-28T11:51:58.172Z,6.70
2018-01-28T11:54:26.464Z,6.80
2018-01-28T11:56:54.752Z,6.80
2018-01-28T11:59:23.816Z,6.70
2018-01-28T12:01:54.477Z,6.70
2018-01-28T12:04:23.555Z,6.70
2018-01-28T12:06:51.819Z,6.70
2018-01-28T12:09:20.228Z,6.70
2018-01-28T12:11:49.380Z,6.80
2018-01-28T12:14:17.617Z,6.80
2018-01-28T12:16:45.876Z,6.80
2018-01-28T12:19:15.004Z,6.90
2018-01-28T12:21:43.486Z,6.80
2018-01-28T12:24:11.791Z,6.90
2018-01-28T12:26:40.106Z,7.00
2018-01-28T12:29:09.130Z,7.00
2018-01-28T12:31:37.440Z,7.00
2018-01-28T12:34:05.790Z,7.00
2018-01-28T12:36:34.023Z,7.00
2018-01-28T12:39:02.309Z,7.00
2018-01-28T12:41:31.330Z,7.00
2018-01-28T12:43:59.609Z,7.00
2018-01-28T12:46:27.842Z,7.00
2018-01-28T12:48:56.944Z,6.80
2018-01-28T12:51:25.176Z,6.90
2018-01-28T12:53:53.408Z,6.90
2018-01-28T12:56:22.463Z,6.90
2018-01-28T12:58:50.699Z,6.90
2018-01-28T13:01:18.985Z,7.00
2018-01-28T13:03:47.272Z,6.90
2018-01-28T13:06:15.548Z,7.00
2018-01-28T13:08:44.004Z,6.90
2018-01-28T13:11:13.524Z,6.90
2018-01-28T13:13:42.692Z,6.90
2018-01-28T13:16:10.952Z,6.90
2018-01-28T13:18:40.217Z,7.00
2018-01-28T13:21:09.250Z,7.00
2018-01-28T13:23:38.017Z,7.00
2018-01-28T13:26:06.394Z,7.00
2018-01-28T13:28:34.649Z,7.00
2018-01-28T13:31:03.692Z,7.10
2018-01-28T13:33:32.024Z,7.00
2018-01-28T13:36:01.340Z,7.00
2018-01-28T13:38:29.812Z,7.10
2018-01-28T13:40:58.124Z,7.00
2018-01-28T13:43:26.382Z,7.10
2018-01-28T13:45:54.599Z,7.10
2018-01-28T13:48:23.011Z,7.00
2018-01-28T13:50:51.332Z,7.10
2018-01-28T13:53:19.600Z,7.00
2018-01-28T13:55:47.884Z,6.90
2018-01-28T13:58:16.216Z,6.90
2018-01-28T14:00:46.031Z,6.80
2018-01-28T14:03:15.673Z,6.80
2018-01-28T14:05:43.973Z,6.80
2018-01-28T14:08:12.255Z,6.80
2018-01-28T14:10:40.608Z,6.80
2018-01-28T14:13:08.856Z,6.80
2018-01-28T14:15:37.860Z,6.80
2018-01-28T14:18:06.323Z,6.80
2018-01-28T14:20:35.346Z,6.70
2018-01-28T14:23:03.585Z,6.70
2018-01-28T14:25:32.732Z,6.70
2018-01-28T14:28:01.071Z,6.70
2018-01-28T14:30:29.312Z,6.70
2018-01-28T14:32:57.668Z,6.70
2018-01-28T14:35:26.140Z,6.80
2018-01-28T14:37:54.213Z,6.70
2018-01-28T14:40:24.118Z,6.80
2018-01-28T14:42:52.376Z,6.70
2018-01-28T14:45:20.694Z,6.80
2018-01-28T14:47:49.036Z,6.80
2018-01-28T14:50:17.425Z,6.70
2018-01-28T14:52:45.713Z,6.80
2018-01-28T14:55:14.015Z,6.80
2018-01-28T14:57:42.268Z,6.80
2018-01-28T15:00:10.556Z,6.80
2018-01-28T15:02:38.913Z,6.90
2018-01-28T15:05:07.329Z,6.80
2018-01-28T15:07:36.867Z,6.80
2018-01-28T15:10:05.265Z,6.90
2018-01-28T15:12:33.512Z,6.80
2018-01-28T15:15:02.539Z,6.90
2018-01-28T15:17:30.823Z,6.80
2018-01-28T15:19:59.076Z,6.90
2018-01-28T15:22:27.352Z,6.90
2018-01-28T15:24:55.616Z,6.90
2018-01-28T15:27:24.624Z,7.00
2018-01-28T15:29:52.865Z,6.90
2018-01-28T15:32:21.246Z,6.90
2018-01-28T15:34:49.504Z,6.90
2018-01-28T15:37:17.737Z,6.90
2018-01-28T15:39:46.002Z,6.90
2018-01-28T15:42:14.296Z,6.90
2018-01-28T15:44:42.629Z,6.90
2018-01-28T15:47:10.893Z,6.90
2018-01-28T15:49:39.128Z,6.90
2018-01-28T15:52:07.547Z,6.90
2018-01-28T15:54:35.865Z,6.90
2018-01-28T15:57:04.108Z,6.90
2018-01-28T15:59:32.356Z,6.90
2018-01-28T16:02:00.635Z,6.90
2018-01-28T16:04:28.884Z,6.90
2018-01-28T16:06:57.128Z,6.90
2018-01-28T16:09:26.188Z,6.90
2018-01-28T16:11:54.568Z,6.90
2018-01-28T16:14:22.804Z,6.90
2018-01-28T16:16:51.110Z,6.90
2018-01-28T16:19:19.372Z,6.90
2018-01-28T16:21:47.644Z,6.90
2018-01-28T16:24:15.924Z,6.90
2018-01-28T16:26:44.237Z,6.90
2018-01-28T16:29:12.908Z,6.90
2018-01-28T16:31:41.289Z,6.90
2018-01-28T16:34:09.540Z,6.90
2018-01-28T16:36:37.930Z,6.90
2018-01-28T16:39:06.276Z,6.90
2018-01-28T16:41:34.600Z,6.90
2018-01-28T16:44:02.864Z,6.90
2018-01-28T16:46:31.139Z,6.90
2018-01-28T16:48:59.417Z,7.00
2018-01-28T16:51:27.652Z,6.90
2018-01-28T16:53:56.723Z,7.00
2018-01-28T16:56:24.924Z,7.00
2018-01-28T16:58:54.095Z,7.00
2018-01-28T17:01:23.596Z,7.00
2018-01-28T17:03:51.856Z,7.00
2018-01-28T17:06:20.316Z,7.10
2018-01-28T17:08:49.350Z,7.10
2018-01-28T17:11:17.626Z,7.00
2018-01-28T17:13:45.871Z,7.00
2018-01-28T17:16:14.139Z,7.00
2018-01-28T17:18:42.597Z,7.10
2018-01-28T17:21:10.837Z,7.10
2018-01-28T17:23:39.133Z,7.10
2018-01-28T17:26:07.415Z,7.10
2018-01-28T17:28:35.658Z,7.10
2018-01-28T17:31:04.367Z,7.10
2018-01-28T17:33:33.443Z,7.10
2018-01-28T17:36:01.742Z,7.10
2018-01-28T17:38:30.053Z,7.10
2018-01-28T17:40:59.115Z,7.20
2018-01-28T17:43:27.382Z,7.20
2018-01-28T17:45:56.085Z,7.20
2018-01-28T17:48:24.327Z,7.20
2018-01-28T17:50:52.661Z,7.20
2018-01-28T17:53:21.698Z,7.20
2018-01-28T17:55:49.970Z,7.20
2018-01-28T17:58:18.221Z,7.20
2018-01-28T18:00:46.573Z,7.20
2018-01-28T18:03:14.827Z,7.20
2018-01-28T18:05:43.071Z,7.20
2018-01-28T18:08:14.209Z,7.20
2018-01-28T18:10:43.278Z,7.20
2018-01-28T18:13:11.661Z,7.20
2018-01-28T18:15:40.710Z,7.20
2018-01-28T18:18:09.240Z,7.20
2018-01-28T18:20:37.492Z,7.20
2018-01-28T18:23:05.830Z,7.10
2018-01-28T18:25:34.147Z,7.10
2018-01-28T18:28:02.392Z,7.10
2018-01-28T18:30:30.784Z,7.20
2018-01-28T18:32:59.025Z,7.20
2018-01-28T18:35:27.275Z,7.20
2018-01-28T18:37:55.537Z,7.20
2018-01-28T18:40:24.572Z,7.20
2018-01-28T18:42:52.839Z,7.20
2018-01-28T18:45:21.119Z,7.20
2018-01-28T18:47:49.360Z,7.20
2018-01-28T18:50:18.459Z,7.20
2018-01-28T18:52:47.572Z,7.20
2018-01-28T18:55:15.804Z,7.20
2018-01-28T18:57:44.140Z,7.20
2018-01-28T19:00:12.658Z,7.20
2018-01-28T19:02:41.724Z,7.20
2018-01-28T19:05:09.969Z,7.20
2018-01-28T19:07:38.483Z,7.20
2018-01-28T19:10:06.752Z,7.20
2018-01-28T19:12:34.990Z,7.20
2018-01-28T19:15:04.333Z,7.20
2018-01-28T19:17:32.624Z,7.20
2018-01-28T19:20:00.889Z,7.20
2018-01-28T19:22:29.636Z,7.20
2018-01-28T19:24:57.946Z,7.30
2018-01-28T19:27:27.243Z,7.30
2018-01-28T19:29:55.705Z,7.30
2018-01-28T19:32:24.871Z,7.30
2018-01-28T19:34:53.604Z,7.30
2018-01-28T19:37:21.909Z,7.30
2018-01-28T19:39:50.306Z,7.30
2018-01-28T19:42:18.562Z,7.40
2018-01-28T19:44:46.875Z,7.40
2018-01-28T19:47:15.285Z,7.40
2018-01-28T19:49:43.509Z,7.40
2018-01-28T19:52:11.862Z,7.30
2018-01-28T19:54:40.161Z,7.40
2018-01-28T19:57:08.537Z,7.40
2018-01-28T19:59:36.976Z,7.40
2018-01-28T20:02:05.974Z,7.40
2018-01-28T20:04:35.602Z,7.40
2018-01-28T20:07:03.924Z,7.40
2018-01-28T20:09:34.467Z,7.40
2018-01-28T20:12:03.561Z,7.40
2018-01-28T20:14:32.230Z,7.40
2018-01-28T20:17:02.132Z,7.30
2018-01-28T20:19:30.641Z,7.30
2018-01-28T20:22:00.646Z,7.40
2018-01-28T20:24:30.053Z,7.40
2018-01-28T20:26:58.359Z,7.40
2018-01-28T20:29:26.683Z,7.40
2018-01-28T20:31:55.216Z,7.40
2018-01-28T20:34:23.850Z,7.40
2018-01-28T20:36:52.121Z,7.30
2018-01-28T20:39:21.410Z,7.30
2018-01-28T20:41:50.863Z,7.40
2018-01-28T20:44:20.389Z,7.40
2018-01-28T20:46:49.582Z,7.40
2018-01-28T20:49:17.841Z,7.30
2018-01-28T20:51:46.944Z,7.40
2018-01-28T20:54:16.809Z,7.30
2018-01-28T20:56:45.805Z,7.30
2018-01-28T20:59:15.174Z,7.30
2018-01-28T21:01:44.353Z,7.30
2018-01-28T21:04:13.444Z,7.30
2018-01-28T21:06:41.855Z,7.30
2018-01-28T21:09:10.628Z,7.30
2018-01-28T21:11:39.934Z,7.30
2018-01-28T21:14:08.278Z,7.30
2018-01-28T21:16:36.553Z,7.20
2018-01-28T21:19:05.770Z,7.30
2018-01-28T21:21:35.540Z,7.30
2018-01-28T21:24:03.890Z,7.30
2018-01-28T21:26:32.317Z,7.20
2018-01-28T21:29:01.314Z,7.20
2018-01-28T21:31:30.440Z,7.20
2018-01-28T21:33:59.496Z,7.20
2018-01-28T21:36:27.877Z,7.20
2018-01-28T21:38:56.928Z,7.20
2018-01-28T21:41:25.187Z,7.20
2018-01-28T21:43:53.477Z,7.20
2018-01-28T21:46:21.772Z,7.20
2018-01-28T21:48:50.563Z,7.20
2018-01-28T21:51:20.129Z,7.30
2018-01-28T21:53:49.366Z,7.20
2018-01-28T21:56:18.382Z,7.20
2018-01-28T21:58:46.672Z,7.20
2018-01-28T22:01:15.020Z,7.20
2018-01-28T22:03:43.305Z,7.10
2018-01-28T22:06:11.817Z,7.10
2018-01-28T22:08:41.049Z,7.20
2018-01-28T22:11:09.307Z,7.10
2018-01-28T22:13:37.642Z,7.20
2018-01-28T22:16:06.684Z,7.20
2018-01-28T22:18:35.684Z,7.10
2018-01-28T22:21:04.072Z,7.10
2018-01-28T22:23:32.432Z,7.10
2018-01-28T22:26:00.763Z,7.10
2018-01-28T22:28:29.102Z,7.10
2018-01-28T22:30:58.169Z,7.10
2018-01-28T22:33:27.271Z,7.20
2018-01-28T22:35:56.364Z,7.10
2018-01-28T22:38:25.550Z,7.10
2018-01-28T22:40:53.954Z,7.10
2018-01-28T22:43:22.332Z,7.20
2018-01-28T22:45:51.334Z,7.20
2018-01-28T22:48:19.729Z,7.20
2018-01-28T22:50:48.129Z,7.20
2018-01-28T22:53:16.419Z,7.10
2018-01-28T22:55:44.692Z,7.20
2018-01-28T22:58:13.038Z,7.20
2018-01-28T23:00:42.034Z,7.20
2018-01-28T23:03:10.288Z,7.20
2018-01-28T23:05:39.329Z,7.20
2018-01-28T23:08:07.594Z,7.10
2018-01-28T23:10:35.848Z,7.20
2018-01-28T23:13:04.112Z,7.20
2018-01-28T23:15:32.356Z,7.20
2018-01-28T23:18:00.632Z,7.20
2018-01-28T23:20:28.938Z,7.20
2018-01-28T23:22:57.228Z,7.10
2018-01-28T23:25:25.477Z,7.20
2018-01-28T23:27:54.505Z,7.20
2018-01-28T23:30:22.816Z,7.20
2018-01-28T23:32:51.076Z,7.20
2018-01-28T23:35:19.533Z,7.20
2018-01-28T23:37:47.848Z,7.10
2018-01-28T23:40:16.084Z,7.10
2018-01-28T23:42:44.371Z,7.00
2018-01-28T23:45:12.601Z,7.00
2018-01-28T23:47:41.617Z,6.90
2018-01-28T23:50:09.890Z,6.90
2018-01-28T23:52:38.139Z,6.90
2018-01-28T23:55:06.465Z,6.90
2018-01-28T23:57:34.817Z,6.90
